Remicourt, Belgium
Current Conditions -  °F | °C
As of 1:50 PM on Sunday 21 Dec 2014 (Local Time) from EBLG Reporting Station
Broken Clouds Broken Clouds  
Wind Chill: 37°   Ceiling: 1800
Heat Index: 45°   Visibility: 6mi
Dew Point: 39°   Wind: 17mph
Humidity: 81%   Direction: 220°SW
Pressure: 30.36"   Gusts: NA
Location:  50.68°N, 5.33°E
Report Text: EBLG 211250Z 22015KT 9999 BKN018 BKN032 07/04 Q1028 NOSIG
Loading
Personal Weather Stations






























Interactive Weather Map New forecast layout! Learn more

10-Day Weather Forecast

Advertisements
Track Severe Weather on mobile